Terminal Aerodrome Forecast
Issued by NWS

Home | Current Version | Previous Version | Graphics & Text | Print | Product List | Glossary On
Versions: 1 2 3 4 5 6 7 8 9 10 11 12 13 14 15 16 17 18 19
000
FTUS43 KIWX 282035 AAB
TAFSBN
TAF AMD
KSBN 282035Z 2821/2918 04004KT P6SM VCTS SCT050CB BKN200
      TEMPO 2822/2824 5SM -TSRA BR BKN050CB
     FM290300 07004KT P6SM FEW050 BKN200=

USA.gov is the U.S. government's official web portal to all federal, state and local government web resources and services.